Time;durP1;ratioP1;P1;durP2;ratioP2;P2;SDS_P1;SDS_P2;PMS_P1;PMS_P2;Temp;Humidity;BMP_temperature;BMP_pressure;BME280_temperature;BME280_humidity;BME280_pressure;Samples;Min_cycle;Max_cycle;Signal;HPM_P1;HPM_P2
2022/10/01 00:00:10;;;;;;;4.70;2.92;;;;;;;-148.88;72.32;75261.34;4994802;28;20481;-84
2022/10/01 00:02:37;;;;;;;5.50;2.90;;;;;;;-148.88;72.45;75255.25;4995064;28;20034;-85
2022/10/01 00:05:05;;;;;;;4.22;2.95;;;;;;;-148.88;72.40;75255.25;4995692;28;20030;-84
2022/10/01 00:07:36;;;;;;;5.10;2.88;;;;;;;-148.88;71.62;75236.97;4997252;28;20026;-84
2022/10/01 00:10:02;;;;;;;5.18;2.70;;;;;;;-148.88;72.20;75241.03;4995412;28;20022;-84
2022/10/01 00:12:27;;;;;;;4.63;2.88;;;;;;;-148.88;72.17;75241.03;4996349;28;20026;-84
2022/10/01 00:14:52;;;;;;;3.92;2.65;;;;;;;-148.88;72.91;75245.09;4993616;28;20177;-86
2022/10/01 00:17:17;;;;;;;3.50;2.53;;;;;;;-148.88;72.97;75241.03;4993288;28;20045;-84
2022/10/01 00:19:43;;;;;;;4.25;2.92;;;;;;;-148.88;73.14;75230.88;4995981;28;20499;-84
2022/10/01 00:22:08;;;;;;;6.03;3.25;;;;;;;-148.88;72.54;75220.72;4998563;28;20026;-84
2022/10/01 00:24:35;;;;;;;4.38;3.05;;;;;;;-148.88;72.76;75206.50;4998966;28;20026;-84
2022/10/01 00:27:00;;;;;;;5.25;3.25;;;;;;;-148.88;73.10;75212.59;4997634;28;20572;-85
2022/10/01 00:29:26;;;;;;;5.43;3.08;;;;;;;-148.88;73.01;75204.47;4997495;28;20058;-84
2022/10/01 00:31:51;;;;;;;4.22;3.15;;;;;;;-148.88;72.62;75204.47;4997477;28;20030;-84
2022/10/01 00:34:16;;;;;;;4.88;3.08;;;;;;;-148.88;73.04;75190.25;4996641;28;20032;-84
2022/10/01 00:36:41;;;;;;;4.47;2.90;;;;;;;-148.88;72.22;75186.19;4997348;28;20053;-84
2022/10/01 00:39:09;;;;;;;5.75;3.22;;;;;;;-148.88;71.30;75169.94;4998078;28;20033;-84
2022/10/01 00:41:34;;;;;;;6.45;3.15;;;;;;;-148.88;71.62;75176.03;4995010;28;20026;-84
2022/10/01 00:44:20;;;;;;;5.95;3.33;;;;;;;-148.88;72.23;75167.91;4995424;28;20034;-83
2022/10/01 00:46:46;;;;;;;5.25;2.85;;;;;;;-148.88;72.33;75180.09;4996385;28;20026;-85
2022/10/01 00:49:19;;;;;;;7.50;3.30;;;;;;;-148.88;72.43;75167.91;4996863;28;20546;-85
2022/10/01 00:51:50;;;;;;;3.85;2.97;;;;;;;-148.88;71.34;75151.66;4995859;28;20092;-85
2022/10/01 00:54:21;;;;;;;4.70;3.20;;;;;;;-148.88;72.15;75149.63;4997942;28;20038;-84
2022/10/01 00:56:50;;;;;;;5.47;3.10;;;;;;;-148.88;71.66;75147.59;4997305;28;20030;-84
2022/10/01 00:59:15;;;;;;;5.53;3.35;;;;;;;-148.88;71.47;75131.34;4995939;28;20018;-84
2022/10/01 01:01:40;;;;;;;6.53;3.10;;;;;;;-148.88;71.91;75133.38;4996803;28;20044;-84
2022/10/01 01:04:15;;;;;;;5.07;3.10;;;;;;;-148.88;71.52;75131.34;4997621;28;20041;-85
2022/10/01 01:06:43;;;;;;;6.75;3.15;;;;;;;-148.88;71.49;75123.22;4996593;28;20365;-84
2022/10/01 01:09:08;;;;;;;4.18;2.88;;;;;;;-148.88;71.95;75115.09;4994992;28;20030;-84
2022/10/01 01:11:45;;;;;;;3.85;2.97;;;;;;;-148.88;71.96;75111.03;4996216;28;20026;-85
2022/10/01 01:14:35;;;;;;;5.80;3.10;;;;;;;-148.88;71.21;75119.16;4996378;28;20065;-84
2022/10/01 01:17:09;;;;;;;5.75;3.38;;;;;;;-148.88;71.58;75102.91;4996573;28;20544;-85
2022/10/01 01:20:12;;;;;;;4.43;3.03;;;;;;;-148.88;72.30;75106.97;4995648;28;20029;-85
2022/10/01 01:22:47;;;;;;;4.93;3.10;;;;;;;-148.88;72.10;75106.97;4994734;28;20026;-85
2022/10/01 01:25:17;;;;;;;6.10;3.17;;;;;;;-148.88;71.96;75104.94;4995690;28;20383;-85
2022/10/01 01:28:17;;;;;;;4.78;3.10;;;;;;;-148.88;71.48;75088.72;4995144;28;20030;-85
2022/10/01 01:30:43;;;;;;;5.50;3.30;;;;;;;-148.88;71.58;75086.69;4995687;28;20027;-85
2022/10/01 01:33:18;;;;;;;5.20;3.20;;;;;;;-148.88;71.70;75090.72;4994318;28;20026;-85
2022/10/01 01:35:51;;;;;;;5.05;3.13;;;;;;;-148.88;72.42;75094.81;4996162;28;20077;-84
2022/10/01 01:38:23;;;;;;;5.28;2.97;;;;;;;-148.88;72.32;75094.81;4994759;28;20116;-84
2022/10/01 01:40:54;;;;;;;4.72;2.95;;;;;;;-148.88;71.93;75082.63;4994247;28;20078;-84
2022/10/01 01:43:25;;;;;;;4.55;2.80;;;;;;;-148.88;72.15;75088.72;4995165;28;20026;-84
2022/10/01 01:45:53;;;;;;;3.70;3.00;;;;;;;-148.88;72.25;75082.63;4995358;28;20046;-85
2022/10/01 01:48:22;;;;;;;4.95;3.17;;;;;;;-148.88;72.26;75078.56;4996481;28;20037;-84
2022/10/01 01:50:56;;;;;;;5.82;3.28;;;;;;;-148.88;71.75;75070.44;4994752;28;20492;-86
2022/10/01 01:53:22;;;;;;;4.07;2.90;;;;;;;-148.88;71.85;75062.31;4996307;28;20028;-85
2022/10/01 01:55:48;;;;;;;3.58;2.88;;;;;;;-148.88;72.47;75070.44;4995749;28;20029;-85
2022/10/01 01:58:17;;;;;;;4.35;3.10;;;;;;;-148.88;71.88;75052.16;4994301;28;20019;-84
2022/10/01 02:00:43;;;;;;;4.45;3.13;;;;;;;-148.88;71.60;75056.22;4994746;28;20080;-85
2022/10/01 02:03:10;;;;;;;4.30;3.03;;;;;;;-148.88;72.47;75050.13;4994258;28;20030;-85
2022/10/01 02:05:57;;;;;;;4.50;3.25;;;;;;;-148.88;71.85;75039.97;4995738;28;20501;-85
2022/10/01 02:08:36;;;;;;;3.70;2.60;;;;;;;-148.88;72.29;75035.91;4994937;28;20033;-85
2022/10/01 02:11:14;;;;;;;5.97;3.28;;;;;;;-148.88;72.70;75039.97;4994891;28;20033;-84
2022/10/01 02:14:31;;;;;;;3.63;2.90;;;;;;;-148.88;72.37;75039.97;4995721;28;20030;-86
2022/10/01 02:17:02;;;;;;;4.13;2.80;;;;;;;-148.88;73.34;75033.88;4954234;29;20499;-85
2022/10/01 02:19:51;;;;;;;4.18;3.20;;;;;;;-148.88;74.87;75029.81;4983639;28;20262;-84
2022/10/01 02:22:30;;;;;;;4.80;3.47;;;;;;;-148.88;76.57;75048.09;4993308;28;20022;-84
2022/10/01 02:25:00;;;;;;;5.40;3.35;;;;;;;-148.88;76.46;75054.19;4993146;28;20030;-85
2022/10/01 02:27:43;;;;;;;4.13;3.50;;;;;;;-148.88;78.52;75056.22;4994098;28;20104;-85
2022/10/01 02:30:10;;;;;;;5.68;3.88;;;;;;;-148.88;81.43;75070.44;4994261;28;20018;-84
2022/10/01 02:32:38;;;;;;;4.65;3.60;;;;;;;-148.88;82.49;75078.56;4994288;28;20362;-84
2022/10/01 02:35:08;;;;;;;5.60;3.90;;;;;;;-148.88;83.82;75086.69;4994090;28;20468;-86
2022/10/01 02:37:37;;;;;;;4.85;3.85;;;;;;;-148.88;85.51;75084.66;4994094;28;20549;-88
2022/10/01 02:40:06;;;;;;;7.15;4.50;;;;;;;-148.88;87.21;75090.72;4993882;28;20045;-87
2022/10/01 02:42:35;;;;;;;6.43;4.50;;;;;;;-148.88;89.22;75104.94;4993411;28;20025;-88
2022/10/01 02:45:06;;;;;;;6.85;4.32;;;;;;;-148.88;89.99;75119.16;4992866;28;20484;-87
2022/10/01 02:47:38;;;;;;;6.03;4.68;;;;;;;-148.88;92.17;75131.34;4978283;28;20369;-87
2022/10/01 02:50:06;;;;;;;6.97;4.50;;;;;;;-148.88;92.56;75143.53;4993958;28;20030;-88
2022/10/01 02:52:40;;;;;;;7.78;4.80;;;;;;;-148.88;93.86;75147.59;4992760;28;20018;-87
2022/10/01 02:55:41;;;;;;;7.40;5.43;;;;;;;-148.88;93.90;75151.66;4993804;28;20034;-88
2022/10/01 02:58:07;;;;;;;7.85;5.43;;;;;;;-148.88;95.25;75161.81;4953257;29;20031;-88
2022/10/01 03:00:33;;;;;;;7.13;5.38;;;;;;;-148.88;95.56;75153.69;4981024;28;20042;-87
2022/10/01 03:02:58;;;;;;;7.15;5.35;;;;;;;-148.88;96.73;75161.81;4992841;28;20026;-87
2022/10/01 03:05:24;;;;;;;7.20;5.38;;;;;;;-148.88;97.20;75159.78;4994367;28;20025;-89
2022/10/01 03:07:49;;;;;;;8.98;5.60;;;;;;;-148.88;98.28;75174.00;4994210;28;20038;-87
2022/10/01 03:10:18;;;;;;;7.18;5.60;;;;;;;-148.88;98.01;75169.94;4993918;28;20493;-88
2022/10/01 03:12:45;;;;;;;7.03;5.60;;;;;;;-148.88;99.13;75157.75;4992505;28;20173;-87
2022/10/01 03:15:15;;;;;;;6.63;5.60;;;;;;;-148.88;99.70;75157.75;4993817;28;20029;-87
2022/10/01 03:17:41;;;;;;;8.43;6.15;;;;;;;-148.88;99.85;75151.66;4992288;28;20022;-86
2022/10/01 03:20:07;;;;;;;6.85;6.00;;;;;;;-148.88;100.00;75149.63;4992646;28;20033;-87
2022/10/01 03:22:33;;;;;;;7.47;6.43;;;;;;;-148.88;100.00;75149.63;4994682;28;20131;-88
2022/10/01 03:24:59;;;;;;;6.88;6.18;;;;;;;-148.88;100.00;75161.81;4995194;28;20053;-91
2022/10/01 03:27:30;;;;;;;7.68;6.88;;;;;;;-148.88;100.00;75147.59;4994623;28;20033;-90
2022/10/01 03:29:55;;;;;;;8.52;7.22;;;;;;;-148.88;100.00;75155.72;4992866;28;20728;-88
2022/10/01 03:32:30;;;;;;;9.65;7.15;;;;;;;-148.88;100.00;75143.53;4994575;28;20058;-90
2022/10/01 03:34:57;;;;;;;8.40;7.10;;;;;;;-148.88;100.00;75141.50;4993469;28;20366;-88
2022/10/01 03:37:23;;;;;;;9.05;7.35;;;;;;;-148.88;100.00;75141.50;4992921;28;20050;-87
2022/10/01 03:39:51;;;;;;;10.65;7.63;;;;;;;-148.88;100.00;75145.56;4993048;28;20022;-87
2022/10/01 03:42:19;;;;;;;8.48;5.13;;;;;;;-148.88;100.00;75143.53;4987668;23;20054;-83
2022/10/01 03:44:44;;;;;;;9.40;7.55;;;;;;;-148.88;100.00;75141.50;4957086;29;20015;-82
2022/10/01 03:47:10;;;;;;;8.95;7.43;;;;;;;-148.88;100.00;75143.53;4956969;29;20023;-83
2022/10/01 03:49:36;;;;;;;13.20;8.95;;;;;;;-148.88;100.00;75141.50;4956090;29;20027;-85
2022/10/01 03:52:07;;;;;;;10.43;8.55;;;;;;;-148.88;100.00;75131.34;4952741;28;20042;-85
2022/10/01 03:54:38;;;;;;;13.18;8.10;;;;;;;-148.88;100.00;75141.50;4938707;29;20031;-85
2022/10/01 03:57:09;;;;;;;12.00;8.57;;;;;;;-148.88;100.00;75141.50;4941006;29;20426;-84
2022/10/01 03:59:37;;;;;;;12.02;8.52;;;;;;;-148.88;100.00;75135.41;4942120;29;20110;-84
2022/10/01 04:02:07;;;;;;;11.38;7.88;;;;;;;-148.88;100.00;75135.41;4941910;29;20077;-85
2022/10/01 04:04:32;;;;;;;11.05;8.10;;;;;;;-148.88;100.00;75135.41;4941928;29;20036;-85
2022/10/01 04:07:00;;;;;;;9.63;7.97;;;;;;;-148.88;100.00;75133.38;4942448;29;20034;-82
2022/10/01 04:09:29;;;;;;;10.52;7.15;;;;;;;-148.88;100.00;75129.31;4939946;29;20024;-83
2022/10/01 04:12:00;;;;;;;10.45;5.00;;;;;;;-148.88;100.00;75121.19;4942426;29;20091;-82
2022/10/01 04:14:29;;;;;;;9.45;6.97;;;;;;;-148.88;100.00;75133.38;4944522;29;20485;-86
2022/10/01 04:16:54;;;;;;;8.75;7.03;;;;;;;-148.88;100.00;75133.38;4942670;29;20107;-88
2022/10/01 04:19:20;;;;;;;9.23;7.00;;;;;;;-148.88;100.00;75133.38;4944439;29;20368;-83
2022/10/01 04:21:45;;;;;;;7.50;4.38;;;;;;;-148.88;100.00;75123.22;4944324;29;20546;-86
2022/10/01 04:24:10;;;;;;;8.13;6.90;;;;;;;-148.88;100.00;75127.28;4943916;29;20062;-83
2022/10/01 04:26:36;;;;;;;8.02;4.72;;;;;;;-148.88;100.00;75121.19;4944240;29;20050;-85
2022/10/01 04:29:03;;;;;;;6.22;3.90;;;;;;;-148.88;100.00;75119.16;4941347;29;20055;-85
2022/10/01 04:31:33;;;;;;;8.38;5.80;;;;;;;-148.88;100.00;75117.13;4938720;29;20086;-86
2022/10/01 04:34:09;;;;;;;6.60;3.88;;;;;;;-148.88;100.00;75119.16;4941922;29;20027;-85
2022/10/01 04:36:36;;;;;;;6.80;6.10;;;;;;;-148.88;100.00;75104.94;4941556;29;20028;-86
2022/10/01 04:39:01;;;;;;;8.52;6.15;;;;;;;-148.88;100.00;75111.03;4940384;29;20371;-85
2022/10/01 04:41:29;;;;;;;7.38;4.05;;;;;;;-148.88;100.00;75111.03;4942751;29;20040;-85
2022/10/01 04:43:58;;;;;;;8.10;6.10;;;;;;;-148.88;100.00;75111.03;4941526;29;20557;-85
2022/10/01 04:46:29;;;;;;;7.57;6.20;;;;;;;-148.88;100.00;75111.03;4939218;29;20023;-85
2022/10/01 04:48:54;;;;;;;9.40;6.45;;;;;;;-148.88;100.00;75106.97;4940554;29;20115;-85
2022/10/01 04:51:20;;;;;;;8.30;6.25;;;;;;;-148.88;100.00;75111.03;4940581;29;20063;-85
2022/10/01 04:53:48;;;;;;;6.40;3.88;;;;;;;-148.88;100.00;75106.97;4942657;29;20034;-86
2022/10/01 04:56:13;;;;;;;7.10;4.00;;;;;;;-148.88;100.00;75102.91;4941980;29;20024;-85
2022/10/01 04:58:40;;;;;;;8.63;5.88;;;;;;;-148.88;100.00;75094.81;4941201;29;20044;-85
2022/10/01 05:01:16;;;;;;;8.90;5.95;;;;;;;-148.88;100.00;75100.88;4938210;29;20031;-87
2022/10/01 05:03:50;;;;;;;8.98;5.90;;;;;;;-148.88;100.00;75102.91;4940264;29;20027;-84
2022/10/01 05:06:22;;;;;;;8.15;6.43;;;;;;;-148.88;100.00;75096.81;4940700;29;20020;-86
2022/10/01 05:08:51;;;;;;;10.43;4.30;;;;;;;-148.88;100.00;75086.69;4940911;28;20027;-85
2022/10/01 05:11:37;;;;;;;7.95;6.13;;;;;;;-148.88;100.00;75106.97;4939601;29;20357;-86
2022/10/01 05:14:18;;;;;;;6.45;5.72;;;;;;;-148.88;100.00;75086.69;4956308;29;20039;-86
2022/10/01 05:16:47;;;;;;;7.18;5.65;;;;;;;-148.88;100.00;75092.78;4939083;29;20039;-86
2022/10/01 05:19:13;;;;;;;5.70;3.85;;;;;;;-148.88;100.00;75100.88;4937079;29;20033;-87
2022/10/01 05:21:45;;;;;;;7.10;5.15;;;;;;;-148.88;100.00;75094.81;4937133;29;20035;-85
2022/10/01 05:24:15;;;;;;;7.32;6.05;;;;;;;-148.88;100.00;75090.72;4938597;29;20027;-86
2022/10/01 05:26:40;;;;;;;9.82;6.00;;;;;;;-148.88;100.00;75080.59;4940059;29;20030;-86
2022/10/01 05:29:06;;;;;;;6.53;5.43;;;;;;;-148.88;100.00;75082.63;4940925;29;20098;-85
2022/10/01 05:31:38;;;;;;;7.55;5.60;;;;;;;-148.88;100.00;75078.56;4937672;29;20062;-86
2022/10/01 05:34:03;;;;;;;6.53;5.88;;;;;;;-148.88;100.00;75078.56;4938155;29;20086;-86
2022/10/01 05:36:28;;;;;;;9.25;6.95;;;;;;;-148.88;100.00;75078.56;4938522;29;20028;-86
2022/10/01 05:38:54;;;;;;;7.28;4.25;;;;;;;-148.88;100.00;75078.56;4936984;29;20114;-86
2022/10/01 05:41:19;;;;;;;6.45;3.60;;;;;;;-148.88;100.00;75078.56;4937211;29;20390;-87
2022/10/01 05:43:47;;;;;;;7.35;6.43;;;;;;;-148.88;100.00;75070.44;4938375;29;20035;-89
2022/10/01 05:46:12;;;;;;;10.07;6.55;;;;;;;-148.88;100.00;75062.31;4939434;29;20099;-86
2022/10/01 05:48:40;;;;;;;6.95;5.72;;;;;;;-148.88;100.00;75046.06;4937878;29;20052;-86
2022/10/01 05:51:07;;;;;;;7.20;5.97;;;;;;;-148.88;100.00;75037.94;4939130;29;20027;-86
2022/10/01 05:53:36;;;;;;;7.35;5.65;;;;;;;-148.88;100.00;75039.97;4937414;29;20031;-86
2022/10/01 05:56:02;;;;;;;7.20;5.38;;;;;;;-148.88;100.00;75044.03;4936810;29;20419;-85
2022/10/01 05:58:27;;;;;;;6.55;5.28;;;;;;;-148.88;100.00;75042.00;4937956;29;20031;-86
2022/10/01 06:00:54;;;;;;;6.55;5.30;;;;;;;-148.88;100.00;75039.97;4936712;29;20028;-85
2022/10/01 06:03:19;;;;;;;6.63;5.55;;;;;;;-148.88;100.00;75042.00;4936680;29;20020;-86
2022/10/01 06:05:44;;;;;;;6.55;5.85;;;;;;;-148.88;100.00;75025.75;4937081;29;20163;-86
2022/10/01 06:08:10;;;;;;;6.63;5.72;;;;;;;-148.88;100.00;75033.88;4939173;29;20054;-89
2022/10/01 06:10:36;;;;;;;7.15;3.88;;;;;;;-148.88;100.00;75029.81;4936670;29;20019;-87
2022/10/01 06:13:04;;;;;;;6.20;5.40;;;;;;;-148.88;100.00;75013.56;4938693;29;20032;-86
2022/10/01 06:15:33;;;;;;;6.47;5.30;;;;;;;-148.88;100.00;75027.78;4937827;29;20110;-86
2022/10/01 06:18:03;;;;;;;8.13;5.03;;;;;;;-148.88;100.00;75021.69;4938275;29;20111;-86
2022/10/01 06:20:29;;;;;;;6.07;4.50;;;;;;;-148.88;100.00;75025.75;4936320;29;20035;-89
2022/10/01 06:22:56;;;;;;;5.28;4.55;;;;;;;-148.88;100.00;75019.66;4939186;29;20030;-88
2022/10/01 06:25:22;;;;;;;4.88;4.07;;;;;;;-148.88;100.00;75009.50;4937883;29;20145;-88
2022/10/01 06:27:56;;;;;;;6.13;4.20;;;;;;;-148.88;100.00;75003.41;4937757;29;20053;-87
2022/10/01 06:30:22;;;;;;;6.22;4.53;;;;;;;-148.88;100.00;74997.31;4939900;29;20072;-86
2022/10/01 06:32:47;;;;;;;9.15;6.50;;;;;;;-148.88;100.00;74985.13;4937039;29;20048;-84
2022/10/01 06:35:13;;;;;;;5.65;4.90;;;;;;;-148.88;100.00;74989.19;4938381;29;20032;-87
2022/10/01 06:37:38;;;;;;;5.18;2.95;;;;;;;-148.88;100.00;74985.13;4936358;29;20115;-87
2022/10/01 06:40:05;;;;;;;6.10;4.05;;;;;;;-148.88;100.00;74983.09;4936360;29;20474;-89
2022/10/01 06:42:30;;;;;;;3.90;3.33;;;;;;;-148.88;100.00;74985.13;4937113;29;20091;-87
2022/10/01 06:44:56;;;;;;;4.05;3.10;;;;;;;-148.88;100.00;74987.16;4936079;29;20015;-86
2022/10/01 06:47:21;;;;;;;4.43;3.40;;;;;;;-148.88;100.00;74989.19;4937687;29;20086;-87
2022/10/01 06:49:46;;;;;;;3.17;2.00;;;;;;;-148.88;100.00;74968.88;4938918;29;20805;-86
2022/10/01 06:54:56;;;;;;;3.17;2.60;;;;;;;-148.88;100.00;74954.66;4938174;29;20062;-86
2022/10/01 06:57:21;;;;;;;3.40;2.60;;;;;;;-148.88;100.00;74956.69;4938562;29;20027;-89
2022/10/01 06:59:46;;;;;;;2.75;2.20;;;;;;;-148.88;100.00;74956.69;4937640;29;20027;-86
2022/10/01 07:02:26;;;;;;;2.65;2.35;;;;;;;-148.88;100.00;74954.66;4938732;29;20036;-87
2022/10/01 07:04:52;;;;;;;3.25;2.35;;;;;;;-148.88;100.00;74948.56;4939038;29;20019;-86
2022/10/01 07:07:17;;;;;;;2.95;2.30;;;;;;;-148.88;100.00;74946.53;4937405;29;20034;-86
2022/10/01 07:09:43;;;;;;;2.72;2.38;;;;;;;-148.88;100.00;74946.53;4937111;29;20494;-85
2022/10/01 07:12:08;;;;;;;3.03;2.58;;;;;;;-148.88;100.00;74934.38;4939680;29;20034;-87
2022/10/01 07:14:34;;;;;;;3.20;2.40;;;;;;;-148.88;100.00;74940.47;4939299;29;20478;-85
2022/10/01 07:17:02;;;;;;;3.70;2.33;;;;;;;-148.88;100.00;74942.47;4940924;29;20123;-86
2022/10/01 07:19:27;;;;;;;3.08;2.10;;;;;;;-148.88;100.00;74936.41;4937814;29;20030;-86
2022/10/01 07:21:55;;;;;;;2.90;2.50;;;;;;;-148.88;100.00;74940.47;4954986;28;20027;-86
2022/10/01 07:24:20;;;;;;;3.65;2.30;;;;;;;-148.88;100.00;74940.47;4939292;29;20427;-86
2022/10/01 07:26:49;;;;;;;2.78;2.25;;;;;;;-148.88;100.00;74938.44;4937650;29;20035;-88
2022/10/01 07:29:15;;;;;;;2.90;2.30;;;;;;;-148.88;100.00;74936.41;4937087;29;20024;-90
2022/10/01 07:31:43;;;;;;;2.90;2.33;;;;;;;-148.88;100.00;74940.47;4936359;29;20430;-88
2022/10/01 07:34:12;;;;;;;2.92;2.60;;;;;;;-148.88;100.00;74944.53;4935159;29;20110;-88
2022/10/01 07:36:41;;;;;;;3.25;2.95;;;;;;;-148.88;100.00;74940.47;4934973;29;20024;-89
2022/10/01 07:39:07;;;;;;;3.72;2.95;;;;;;;-148.88;100.00;74938.44;4935138;29;20042;-89
2022/10/01 07:41:32;;;;;;;2.92;2.63;;;;;;;-148.88;100.00;74934.38;4934976;29;20032;-89
2022/10/01 07:43:57;;;;;;;3.58;3.00;;;;;;;-148.88;100.00;74932.34;4934969;29;20122;-85
2022/10/01 07:46:23;;;;;;;4.30;3.17;;;;;;;-148.88;100.00;74938.44;4935273;29;20027;-87
2022/10/01 07:48:48;;;;;;;4.55;2.45;;;;;;;-148.88;100.00;74940.47;4934916;29;20020;-88
2022/10/01 07:51:13;;;;;;;4.70;3.63;;;;;;;-148.88;100.00;74936.41;4950992;28;20023;-86
2022/10/01 07:53:39;;;;;;;4.10;3.63;;;;;;;-148.88;100.00;74936.41;4934887;29;20036;-85
2022/10/01 07:56:04;;;;;;;5.72;4.00;;;;;;;-148.88;100.00;74936.41;4936281;29;20031;-88
2022/10/01 07:58:32;;;;;;;5.18;3.75;;;;;;;-148.88;100.00;74942.47;4937426;29;20573;-86
2022/10/01 08:01:04;;;;;;;5.70;4.15;;;;;;;-148.88;100.00;74934.38;4938508;29;20023;-84
2022/10/01 08:03:29;;;;;;;6.07;4.50;;;;;;;-148.88;100.00;74936.41;4939153;29;20023;-83
2022/10/01 08:05:55;;;;;;;5.18;4.35;;;;;;;-148.88;100.00;74920.16;4954452;28;20159;-84
2022/10/01 08:08:21;;;;;;;6.05;4.90;;;;;;;-148.88;100.00;74928.28;4938483;29;20039;-85
2022/10/01 08:10:48;;;;;;;5.63;4.50;;;;;;;-148.88;100.00;74922.19;4938252;29;20055;-82
2022/10/01 08:13:15;;;;;;;5.88;4.82;;;;;;;-148.88;100.00;74936.41;4938945;29;20028;-83
2022/10/01 08:15:42;;;;;;;5.63;5.10;;;;;;;-148.88;100.00;74932.34;4939679;29;20032;-81
2022/10/01 08:18:08;;;;;;;6.70;5.25;;;;;;;-148.88;100.00;74920.16;4937776;29;20491;-82
2022/10/01 08:20:34;;;;;;;6.68;5.50;;;;;;;-148.88;100.00;74912.03;4936825;29;20031;-81
2022/10/01 08:23:04;;;;;;;7.00;5.85;;;;;;;-148.88;100.00;74914.06;4935860;29;20028;-81
2022/10/01 08:25:30;;;;;;;8.13;6.43;;;;;;;-148.88;100.00;74903.91;4936474;29;20051;-83
2022/10/01 08:27:55;;;;;;;6.60;5.90;;;;;;;-148.88;100.00;74907.97;4938028;29;20047;-82
2022/10/01 08:30:21;;;;;;;8.45;6.70;;;;;;;-148.88;100.00;74910.00;4938358;29;20106;-82
2022/10/01 08:32:46;;;;;;;6.70;6.10;;;;;;;-148.88;100.00;74899.84;4938684;29;20030;-84
2022/10/01 08:35:12;;;;;;;8.90;6.40;;;;;;;-148.88;100.00;74895.78;4937457;29;20035;-83
2022/10/01 08:37:37;;;;;;;7.25;6.22;;;;;;;-148.88;100.00;74887.66;4938829;29;20035;-83
2022/10/01 08:40:03;;;;;;;8.35;6.00;;;;;;;-148.88;100.00;74895.78;4938109;29;20039;-82
2022/10/01 08:42:58;;;;;;;7.15;5.68;;;;;;;-148.88;100.00;74903.91;4940960;29;20036;-82
2022/10/01 08:45:33;;;;;;;7.68;6.25;;;;;;;-148.88;100.00;74891.72;4942181;29;20056;-83
2022/10/01 08:48:23;;;;;;;7.18;5.40;;;;;;;-148.88;100.00;74877.50;4941291;29;20032;-83
2022/10/01 08:50:56;;;;;;;6.72;6.03;;;;;;;-148.88;100.00;74871.41;4943259;29;20506;-81
2022/10/01 08:53:36;;;;;;;8.63;6.90;;;;;;;-148.88;100.00;74877.50;4942668;29;20028;-81
2022/10/01 08:56:04;;;;;;;8.43;6.35;;;;;;;-148.88;100.00;74879.53;4940481;29;20078;-80
2022/10/01 08:58:46;;;;;;;7.55;6.68;;;;;;;-148.88;100.00;74879.53;4955259;28;20024;-81
2022/10/01 09:01:12;;;;;;;7.93;6.93;;;;;;;-148.88;100.00;74881.56;4939881;29;20119;-83
2022/10/01 09:03:38;;;;;;;8.73;7.28;;;;;;;-148.88;100.00;74885.63;4938458;29;20063;-81
2022/10/01 09:06:21;;;;;;;8.10;7.30;;;;;;;-148.88;100.00;74869.38;4938916;29;20466;-80
2022/10/01 09:09:20;;;;;;;8.95;8.05;;;;;;;-148.88;100.00;74881.56;4940407;29;20473;-84
2022/10/01 09:11:54;;;;;;;12.68;11.48;;;;;;;-148.88;100.00;74875.47;4940692;29;20034;-85
2022/10/01 09:14:38;;;;;;;55.90;40.63;;;;;;;-148.88;100.00;74879.53;4942350;29;20364;-83
2022/10/01 09:17:23;;;;;;;46.05;38.03;;;;;;;-148.88;100.00;74871.41;4942298;29;20047;-81
2022/10/01 09:19:55;;;;;;;19.42;17.30;;;;;;;-148.88;100.00;74857.19;4941207;29;20062;-81
2022/10/01 09:22:40;;;;;;;14.77;13.38;;;;;;;-148.88;100.00;74859.22;4941466;29;20024;-84
2022/10/01 09:25:14;;;;;;;13.32;12.02;;;;;;;-148.88;100.00;74859.22;4940737;29;20389;-82
2022/10/01 09:27:39;;;;;;;;;;;;;;;-148.88;100.00;74851.09;4943213;29;20039;-85
2022/10/01 09:30:23;;;;;;;13.90;12.60;;;;;;;-148.88;100.00;74849.06;4940302;29;19910;-84
2022/10/01 09:33:01;;;;;;;12.82;11.55;;;;;;;-148.88;100.00;74838.91;4938381;29;20027;-85
2022/10/01 09:35:48;;;;;;;12.75;11.55;;;;;;;-148.88;100.00;74845.00;4936976;29;20035;-81
2022/10/01 09:38:42;;;;;;;12.68;11.48;;;;;;;-148.88;100.00;74849.06;4938037;29;20075;-82
2022/10/01 09:41:13;;;;;;;13.50;12.27;;;;;;;-148.88;100.00;74838.91;4937894;29;20035;-82
2022/10/01 09:43:41;;;;;;;12.80;11.60;;;;;;;-148.88;100.00;74845.00;4937550;29;20031;-85
2022/10/01 09:46:14;;;;;;;14.38;13.02;;;;;;;-148.88;100.00;74820.63;4936740;29;20020;-85
2022/10/01 09:48:59;;;;;;;13.37;12.17;;;;;;;-148.88;100.00;74826.72;4937792;29;20028;-86
2022/10/01 09:51:51;;;;;;;13.52;12.13;;;;;;;-148.88;100.00;74826.72;4936865;29;20450;-85
2022/10/01 09:54:27;;;;;;;13.75;12.45;;;;;;;-148.88;100.00;74822.66;4937217;29;20027;-85
2022/10/01 09:57:00;;;;;;;13.45;12.15;;;;;;;-148.88;100.00;74806.44;4937334;29;20032;-84
2022/10/01 09:59:34;;;;;;;13.35;11.95;;;;;;;-148.88;100.00;74818.59;4937078;29;20122;-84
2022/10/01 10:02:02;;;;;;;13.23;11.95;;;;;;;-148.88;100.00;74804.41;4938538;29;20035;-84
2022/10/01 10:04:28;;;;;;;13.18;11.88;;;;;;;-148.88;100.00;74810.50;4936832;29;20043;-85
2022/10/01 10:07:04;;;;;;;15.52;11.63;;;;;;;-148.88;100.00;74814.53;4937286;29;20034;-84
2022/10/01 10:09:33;;;;;;;13.82;12.55;;;;;;;-148.88;100.00;74796.28;4938007;29;20122;-84
2022/10/01 10:11:59;;;;;;;12.88;11.77;;;;;;;-148.88;100.00;74800.34;4938003;29;20031;-84
2022/10/01 10:14:30;;;;;;;12.23;11.05;;;;;;;-148.88;100.00;74794.25;4941132;29;20058;-85
2022/10/01 10:16:56;;;;;;;11.70;10.70;;;;;;;-148.88;100.00;74784.09;4939840;29;20027;-84
2022/10/01 10:19:27;;;;;;;11.80;10.63;;;;;;;-148.88;100.00;74769.88;4939344;29;20030;-86
2022/10/01 10:21:56;;;;;;;12.75;11.55;;;;;;;-148.88;100.00;74765.81;4938986;29;20039;-84
2022/10/01 10:24:31;;;;;;;11.73;10.63;;;;;;;-148.88;100.00;74761.75;4937968;29;20027;-85
2022/10/01 10:26:58;;;;;;;11.55;10.30;;;;;;;-148.88;100.00;74753.63;4938265;29;20032;-85
2022/10/01 10:29:27;;;;;;;11.13;10.13;;;;;;;-148.88;100.00;74723.16;4937396;29;20027;-85
2022/10/01 10:31:54;;;;;;;10.68;9.68;;;;;;;-148.88;100.00;74686.63;4938238;29;20047;-84
2022/10/01 10:34:45;;;;;;;13.90;9.68;;;;;;;-148.88;100.00;74686.63;4937207;29;20035;-85
2022/10/01 10:37:14;;;;;;;9.52;8.63;;;;;;;-148.88;100.00;74660.22;4937575;29;20031;-85
2022/10/01 10:39:44;;;;;;;9.43;8.48;;;;;;;-148.88;100.00;74654.13;4936617;29;20028;-85
2022/10/01 10:42:13;;;;;;;9.30;7.30;;;;;;;-148.88;100.00;74611.47;4936187;28;20031;-84
2022/10/01 10:44:43;;;;;;;8.52;7.03;;;;;;;-148.88;100.00;74585.09;4936795;29;20123;-85
2022/10/01 10:47:12;;;;;;;6.85;5.95;;;;;;;-148.88;99.06;74603.34;4936240;29;20028;-85
2022/10/01 10:49:59;;;;;;;7.82;6.72;;;;;;;-148.88;99.19;74603.34;4936729;29;20032;-85
2022/10/01 10:52:34;;;;;;;7.20;6.47;;;;;;;-148.88;99.18;74619.59;4936079;29;20026;-85
2022/10/01 10:55:17;;;;;;;9.02;6.28;;;;;;;-148.88;99.74;74648.03;4936222;29;20023;-85
2022/10/01 10:57:45;;;;;;;8.82;7.05;;;;;;;-148.88;99.82;74641.94;4936089;29;20019;-85
2022/10/01 11:00:20;;;;;;;8.15;7.35;;;;;;;-148.88;100.00;74639.91;4936658;29;20490;-85
2022/10/01 11:02:58;;;;;;;8.23;6.65;;;;;;;-148.88;99.86;74648.03;4935722;29;20028;-85
2022/10/01 11:05:28;;;;;;;9.52;7.53;;;;;;;-148.88;99.60;74599.28;4936805;29;20027;-85
2022/10/01 11:07:58;;;;;;;9.30;6.60;;;;;;;-148.88;98.03;74550.56;4936938;29;20047;-85
2022/10/01 11:10:34;;;;;;;6.18;5.60;;;;;;;-148.88;95.26;74514.00;4936564;29;20066;-85
2022/10/01 11:13:24;;;;;;;7.75;5.57;;;;;;;-148.88;95.06;74485.59;4936893;29;20494;-85
2022/10/01 11:16:26;;;;;;;8.57;5.32;;;;;;;-148.88;91.71;74465.28;4935496;29;20035;-86
2022/10/01 11:19:20;;;;;;;8.40;5.25;;;;;;;-148.88;92.92;74467.31;4936640;29;20032;-86
2022/10/01 11:21:57;;;;;;;6.45;4.90;;;;;;;-148.88;93.41;74471.38;4935643;29;20023;-83
2022/10/01 11:24:55;;;;;;;6.10;4.93;;;;;;;-148.88;92.67;74485.59;4935435;29;20031;-85
2022/10/01 11:27:45;;;;;;;5.00;4.45;;;;;;;-148.88;93.13;74501.81;4936756;29;20023;-85